This is the latest recevied weather packets stored in our database for station/object VK3BYD-3. If no packets are shown the sender has not sent any weather packets the latest 10 day(s).
| Time | Temp. | Humidity | Pressure | Rain* | Wind** | Luminosity | Snow |
|---|---|---|---|---|---|---|---|
| 1777969074 | 12.22° C | 85% | 1021.7 hPa | 0 mm | - | - | - |
| 1777968174 | 12.78° C | 82% | 1021.4 hPa | 0 mm | - | - | - |
| 1777967274 | 13.33° C | 81% | 1021.2 hPa | 0 mm | - | - | - |
| 1777966374 | 14.44° C | 77% | 1021.2 hPa | 0 mm | - | - | - |
| 1777965474 | 15° C | 75% | 1020.9 hPa | 0 mm | - | - | - |
| 1777964576 | 15.56° C | 73% | 1020.9 hPa | 0 mm | - | - | - |
| 1777963669 | 16.11° C | 70% | 1020.7 hPa | 0 mm | - | - | - |
| 1777962766 | 17.78° C | 67% | 1020.6 hPa | 0 mm | - | - | - |
| 1777961868 | 18.33° C | 68% | 1020.5 hPa | 0 mm | - | - | - |
| 1777960968 | 18.89° C | 66% | 1020.6 hPa | 0 mm | - | - | - |
| 1777960067 | 18.33° C | 68% | 1020.5 hPa | 0 mm | - | - | - |
| 1777959167 | 18.33° C | 69% | 1020.4 hPa | 0 mm | - | - | - |
| 1777958267 | 18.33° C | 69% | 1020.3 hPa | 0 mm | - | - | - |
| 1777957367 | 17.22° C | 72% | 1020.1 hPa | 0 mm | - | - | - |
| 1777956467 | 17.22° C | 71% | 1020.2 hPa | 0 mm | - | - | - |
| 1777955569 | 17.78° C | 71% | 1020.1 hPa | 0 mm | - | - | - |
| 1777954669 | 17.22° C | 73% | 1019.9 hPa | 0 mm | - | - | - |
| 1777953771 | 16.67° C | 72% | 1019.9 hPa | 0 mm | - | - | - |
| 1777952867 | 17.22° C | 72% | 1019.8 hPa | 0 mm | - | - | - |
| 1777951965 | 17.22° C | 74% | 1019.7 hPa | 0 mm | - | - | - |
| 1777951064 | 16.67° C | 74% | 1019.8 hPa | 0 mm | - | - | - |
| 1777950162 | 16.67° C | 75% | 1019.8 hPa | 0 mm | - | - | - |
| 1777949261 | 17.22° C | 73% | 1019.8 hPa | 0 mm | - | - | - |
| 1777948362 | 16.67° C | 74% | 1019.8 hPa | 0 mm | - | - | - |
| 1777947461 | 16.67° C | 73% | 1019.8 hPa | 0 mm | - | - | - |
* Rain latest hour (hover to see other rain measurements)
** Current wind speed in m/s (hover to see current wind gust speed)